Time;durP1;ratioP1;P1;durP2;ratioP2;P2;SDS_P1;SDS_P2;PMS_P1;PMS_P2;Temp;Humidity;BMP_temperature;BMP_pressure;BME280_temperature;BME280_humidity;BME280_pressure;Samples;Min_cycle;Max_cycle;Signal;HPM_P1;HPM_P2
2023/12/16 00:00:44;;;;;;;16.43;13.93;;;12.60;67.30;;;;;;5046076;28;20224;-60
2023/12/16 00:03:11;;;;;;;16.20;12.60;;;12.60;67.10;;;;;;5047558;28;20263;-57
2023/12/16 00:05:36;;;;;;;15.43;13.83;;;12.60;67.10;;;;;;5047187;28;20275;-53
2023/12/16 00:08:02;;;;;;;16.70;12.43;;;12.60;67.10;;;;;;5046815;28;21032;-58
2023/12/16 00:10:27;;;;;;;17.17;12.90;;;12.60;67.10;;;;;;5048773;28;20213;-62
2023/12/16 00:12:53;;;;;;;18.57;13.70;;;12.60;67.10;;;;;;5047836;28;20230;-59
2023/12/16 00:15:19;;;;;;;14.83;11.50;;;12.60;67.30;;;;;;5046704;28;20664;-57
2023/12/16 00:17:44;;;;;;;14.70;13.20;;;12.50;67.40;;;;;;5046297;28;20197;-59
2023/12/16 00:20:10;;;;;;;15.00;12.30;;;12.60;67.80;;;;;;5044798;28;20243;-63
2023/12/16 00:22:39;;;;;;;14.93;12.73;;;12.60;67.80;;;;;;5046394;28;20227;-61
2023/12/16 00:25:08;;;;;;;19.87;11.60;;;12.60;67.70;;;;;;5046589;28;20230;-55
2023/12/16 00:27:35;;;;;;;16.03;11.60;;;12.50;67.90;;;;;;5043280;28;20478;-59
2023/12/16 00:30:00;;;;;;;13.10;10.90;;;12.60;68.10;;;;;;5045858;28;20461;-57
2023/12/16 00:32:26;;;;;;;13.27;10.60;;;12.60;68.80;;;;;;5045901;28;20443;-60
2023/12/16 00:34:52;;;;;;;13.77;12.30;;;12.60;67.90;;;;;;5045866;28;20680;-56
2023/12/16 00:37:17;;;;;;;15.30;12.50;;;12.40;66.90;;;;;;5045072;28;20623;-56
2023/12/16 00:39:43;;;;;;;15.47;13.60;;;12.30;67.70;;;;;;5048371;28;20550;-54
2023/12/16 00:42:09;;;;;;;17.87;14.27;;;12.30;68.30;;;;;;5047892;28;20205;-56
2023/12/16 00:44:34;;;;;;;17.73;13.80;;;12.40;68.40;;;;;;5048028;28;20728;-59
2023/12/16 00:47:00;;;;;;;15.90;12.80;;;12.40;68.20;;;;;;5045414;28;20759;-57
2023/12/16 00:49:26;;;;;;;19.17;14.10;;;12.40;68.30;;;;;;5047142;28;20205;-58
2023/12/16 00:51:52;;;;;;;16.93;13.60;;;12.50;68.30;;;;;;5044499;28;20436;-60
2023/12/16 00:54:18;;;;;;;16.80;12.93;;;12.50;69.00;;;;;;5046336;28;20466;-58
2023/12/16 00:56:43;;;;;;;13.77;12.30;;;12.50;68.10;;;;;;5042615;28;20189;-55
2023/12/16 00:59:09;;;;;;;16.10;13.50;;;12.50;67.90;;;;;;5044099;28;20196;-59
2023/12/16 01:01:34;;;;;;;16.70;13.53;;;12.60;68.10;;;;;;5046701;28;20208;-58
2023/12/16 01:04:00;;;;;;;15.33;12.80;;;12.60;67.90;;;;;;5045660;28;20241;-55
2023/12/16 01:06:26;;;;;;;15.47;12.27;;;12.60;67.80;;;;;;5043283;28;20275;-59
2023/12/16 01:08:51;;;;;;;17.20;13.33;;;12.60;67.60;;;;;;5047161;28;20319;-54
2023/12/16 01:11:17;;;;;;;17.10;13.63;;;12.60;67.70;;;;;;5045308;28;21028;-57
2023/12/16 01:13:43;;;;;;;15.10;13.10;;;12.60;67.80;;;;;;5048784;28;20211;-60
2023/12/16 01:16:08;;;;;;;14.50;12.43;;;12.60;67.70;;;;;;5045158;28;20195;-57
2023/12/16 01:18:34;;;;;;;14.43;12.93;;;12.60;68.10;;;;;;5047988;28;20746;-58
2023/12/16 01:21:05;;;;;;;16.30;13.13;;;12.60;67.90;;;;;;5045578;28;20714;-56
2023/12/16 01:23:30;;;;;;;15.60;12.83;;;12.60;67.60;;;;;;5047868;28;20692;-57
2023/12/16 01:25:56;;;;;;;14.27;12.13;;;12.70;67.60;;;;;;5046074;28;20454;-55
2023/12/16 01:28:21;;;;;;;13.60;12.13;;;12.60;67.70;;;;;;5045363;28;20193;-59
2023/12/16 01:30:47;;;;;;;17.50;11.13;;;12.60;67.70;;;;;;5047258;28;20216;-60
2023/12/16 01:33:13;;;;;;;13.97;11.10;;;12.60;67.80;;;;;;5045288;28;20189;-53
2023/12/16 01:35:38;;;;;;;13.30;10.83;;;12.60;67.70;;;;;;5044283;28;20237;-56
2023/12/16 01:38:04;;;;;;;15.23;11.73;;;12.60;67.70;;;;;;5043299;28;21108;-58
2023/12/16 01:40:29;;;;;;;14.93;10.70;;;12.60;67.60;;;;;;5039957;28;20247;-59
2023/12/16 01:42:55;;;;;;;11.93;10.73;;;12.60;67.50;;;;;;5046744;28;20184;-62
2023/12/16 01:45:21;;;;;;;13.00;10.17;;;12.70;67.60;;;;;;5037978;28;20181;-56
2023/12/16 01:47:46;;;;;;;12.50;10.50;;;12.70;67.70;;;;;;5039875;28;20330;-59
2023/12/16 01:50:12;;;;;;;12.10;10.07;;;12.70;67.70;;;;;;5042798;28;20219;-52
2023/12/16 01:52:41;;;;;;;10.30;9.17;;;12.70;67.40;;;;;;5041985;28;20220;-55
2023/12/16 01:55:07;;;;;;;11.60;9.70;;;12.70;67.20;;;;;;5045409;28;20443;-56
2023/12/16 01:57:34;;;;;;;12.50;10.30;;;12.70;67.20;;;;;;5041946;28;20465;-60
2023/12/16 02:00:00;;;;;;;11.87;9.90;;;12.70;67.30;;;;;;5040860;28;20452;-57
2023/12/16 02:02:26;;;;;;;11.70;10.43;;;12.70;67.30;;;;;;5040424;28;20504;-57
2023/12/16 02:04:52;;;;;;;13.80;9.73;;;12.70;67.20;;;;;;5035949;28;20197;-58
2023/12/16 02:07:17;;;;;;;10.90;9.60;;;12.70;67.20;;;;;;5038826;28;20924;-54
2023/12/16 02:09:43;;;;;;;11.60;9.30;;;12.70;67.20;;;;;;5036004;28;20209;-51
2023/12/16 02:12:09;;;;;;;11.77;10.27;;;12.70;67.20;;;;;;5044166;28;20188;-57
2023/12/16 02:14:34;;;;;;;11.70;10.30;;;12.70;67.20;;;;;;5042791;28;20180;-56
2023/12/16 02:17:00;;;;;;;12.50;9.80;;;12.70;67.00;;;;;;5038358;28;20181;-57
2023/12/16 02:19:27;;;;;;;13.27;10.20;;;12.70;67.00;;;;;;5041786;28;20204;-55
2023/12/16 02:21:54;;;;;;;11.60;9.90;;;12.70;67.00;;;;;;5043811;28;20231;-56
2023/12/16 02:24:20;;;;;;;10.47;9.37;;;12.60;67.00;;;;;;5040314;28;20454;-58
2023/12/16 02:26:45;;;;;;;12.00;10.23;;;12.60;67.00;;;;;;5040566;28;20823;-54
2023/12/16 02:29:11;;;;;;;12.70;10.30;;;12.60;67.20;;;;;;5038864;28;20541;-57
2023/12/16 02:31:36;;;;;;;12.37;11.03;;;12.60;67.00;;;;;;5042774;28;20695;-57
2023/12/16 02:34:02;;;;;;;18.03;10.53;;;12.60;67.00;;;;;;5038469;28;20205;-58
2023/12/16 02:36:27;;;;;;;14.33;12.00;;;12.60;67.00;;;;;;5042469;28;20185;-52
2023/12/16 02:38:53;;;;;;;15.43;12.20;;;12.60;67.00;;;;;;5046210;28;20226;-56
2023/12/16 02:41:21;;;;;;;15.37;12.50;;;12.60;67.20;;;;;;5045509;28;20688;-57
2023/12/16 02:43:46;;;;;;;13.60;11.80;;;12.60;67.10;;;;;;5038980;28;20256;-55
2023/12/16 02:46:12;;;;;;;13.20;11.30;;;12.60;67.10;;;;;;5041805;28;21038;-55
2023/12/16 02:48:38;;;;;;;10.77;9.70;;;12.60;66.80;;;;;;5039759;28;20271;-57
2023/12/16 02:51:14;;;;;;;11.37;10.17;;;12.50;67.10;;;;;;5040057;28;20577;-56
2023/12/16 02:53:40;;;;;;;11.93;10.70;;;12.50;67.30;;;;;;5039643;28;20441;-57
2023/12/16 02:56:06;;;;;;;11.30;10.20;;;12.50;67.10;;;;;;5035479;28;20424;-51
2023/12/16 02:58:32;;;;;;;12.10;10.40;;;12.50;67.10;;;;;;5041429;28;20679;-54
2023/12/16 03:00:59;;;;;;;12.10;10.10;;;12.50;67.10;;;;;;5038895;28;20475;-57
2023/12/16 03:03:24;;;;;;;14.20;9.50;;;12.50;67.10;;;;;;5039947;28;20184;-57
2023/12/16 03:05:50;;;;;;;13.47;10.20;;;12.50;67.10;;;;;;5043645;28;20443;-56
2023/12/16 03:08:15;;;;;;;13.83;10.53;;;12.50;67.10;;;;;;5038038;28;20370;-55
2023/12/16 03:10:41;;;;;;;15.10;10.70;;;12.50;67.00;;;;;;5038111;28;20204;-57
2023/12/16 03:13:06;;;;;;;13.50;11.00;;;12.50;67.20;;;;;;5037846;28;20266;-54
2023/12/16 03:15:32;;;;;;;9.43;8.33;;;12.50;67.20;;;;;;5039919;28;20180;-55
2023/12/16 03:17:58;;;;;;;10.60;9.23;;;12.50;67.40;;;;;;5032471;28;20182;-55
2023/12/16 03:20:23;;;;;;;11.00;8.53;;;12.50;67.40;;;;;;5042699;28;20238;-56
2023/12/16 03:22:49;;;;;;;9.90;8.90;;;12.50;67.20;;;;;;5042179;28;20181;-56
2023/12/16 03:25:14;;;;;;;14.93;9.90;;;12.50;67.10;;;;;;5046010;28;20196;-55
2023/12/16 03:27:40;;;;;;;10.20;9.07;;;12.50;67.20;;;;;;5044383;28;20726;-53
2023/12/16 03:30:06;;;;;;;11.00;9.33;;;12.50;67.20;;;;;;5042366;28;20205;-55
2023/12/16 03:32:32;;;;;;;11.70;9.03;;;12.50;67.20;;;;;;5044851;28;20203;-56
2023/12/16 03:34:57;;;;;;;13.90;9.87;;;12.50;67.40;;;;;;5039148;28;20456;-58
2023/12/16 03:37:23;;;;;;;9.90;8.90;;;12.50;67.40;;;;;;5039374;28;20283;-57
2023/12/16 03:39:48;;;;;;;12.97;9.67;;;12.50;67.30;;;;;;5038367;28;20201;-53
2023/12/16 03:42:14;;;;;;;13.13;10.50;;;12.40;67.20;;;;;;5040384;28;20216;-56
2023/12/16 03:44:41;;;;;;;12.83;9.50;;;12.50;67.40;;;;;;5041638;28;20180;-56
2023/12/16 03:47:07;;;;;;;13.30;10.10;;;12.50;67.40;;;;;;5045190;28;20219;-54
2023/12/16 03:49:32;;;;;;;10.70;9.60;;;12.40;67.40;;;;;;5043934;28;20509;-54
2023/12/16 03:51:58;;;;;;;10.73;9.60;;;12.40;67.50;;;;;;5045364;28;20180;-57
2023/12/16 03:54:24;;;;;;;12.17;10.87;;;12.40;67.50;;;;;;5042585;28;20246;-54
2023/12/16 03:56:49;;;;;;;13.53;10.47;;;12.40;67.90;;;;;;5039874;28;20539;-57
2023/12/16 03:59:15;;;;;;;15.57;11.27;;;12.40;68.10;;;;;;5044092;28;20208;-56
2023/12/16 04:01:44;;;;;;;13.87;11.10;;;12.40;68.10;;;;;;5035567;28;20837;-54
2023/12/16 04:04:10;;;;;;;11.43;9.77;;;12.30;68.10;;;;;;5044127;28;20529;-56
2023/12/16 04:06:36;;;;;;;11.77;9.90;;;12.20;68.60;;;;;;5040979;28;20468;-56
2023/12/16 04:09:01;;;;;;;15.70;9.20;;;12.20;69.00;;;;;;5048548;28;20699;-55
2023/12/16 04:11:27;;;;;;;15.63;11.63;;;12.20;68.90;;;;;;5049782;28;20694;-53
2023/12/16 04:13:52;;;;;;;12.53;10.17;;;12.30;68.90;;;;;;5046954;28;20186;-55
2023/12/16 04:16:19;;;;;;;12.17;10.00;;;12.30;68.50;;;;;;5047607;28;20197;-57
2023/12/16 04:18:45;;;;;;;13.37;10.73;;;12.40;68.50;;;;;;5046807;28;20213;-52
2023/12/16 04:21:11;;;;;;;16.33;10.70;;;12.40;68.50;;;;;;5047514;28;20477;-57
2023/12/16 04:23:36;;;;;;;10.77;9.30;;;12.40;68.40;;;;;;5046720;28;20606;-54
2023/12/16 04:26:02;;;;;;;18.83;10.07;;;12.40;68.50;;;;;;5047519;28;20195;-56
2023/12/16 04:28:28;;;;;;;13.70;10.17;;;12.40;68.50;;;;;;5049071;28;20208;-57
2023/12/16 04:30:53;;;;;;;13.13;9.20;;;12.40;68.30;;;;;;5046028;28;20216;-54
2023/12/16 04:33:19;;;;;;;13.90;11.63;;;12.40;68.30;;;;;;5041866;28;20192;-54
2023/12/16 04:35:44;;;;;;;16.10;9.67;;;12.50;68.20;;;;;;5040989;28;20181;-56
2023/12/16 04:38:10;;;;;;;14.67;10.50;;;12.50;68.20;;;;;;5044593;28;20322;-54
2023/12/16 04:40:35;;;;;;;11.13;9.80;;;12.50;68.10;;;;;;5037620;28;21013;-56
2023/12/16 04:43:01;;;;;;;13.53;9.30;;;12.50;68.10;;;;;;5043793;28;20204;-56
2023/12/16 04:45:26;;;;;;;11.60;9.10;;;12.50;67.90;;;;;;5045695;28;20279;-56
2023/12/16 04:47:52;;;;;;;12.23;9.30;;;12.50;67.60;;;;;;5040268;28;20196;-55
2023/12/16 04:50:17;;;;;;;10.40;9.30;;;12.40;67.70;;;;;;5045777;28;20208;-56
2023/12/16 04:52:43;;;;;;;12.27;9.13;;;12.40;67.70;;;;;;5041770;28;20195;-55
2023/12/16 04:55:10;;;;;;;11.53;9.27;;;12.40;67.60;;;;;;5042006;28;20721;-57
2023/12/16 04:57:36;;;;;;;10.50;9.37;;;12.30;67.90;;;;;;5038389;28;20178;-57
2023/12/16 05:00:04;;;;;;;12.30;9.50;;;12.10;68.10;;;;;;5040204;28;20456;-57
2023/12/16 05:02:30;;;;;;;11.03;8.97;;;12.00;68.30;;;;;;5043983;28;20544;-57
2023/12/16 05:04:56;;;;;;;9.53;8.53;;;12.00;68.70;;;;;;5049373;28;20939;-56
2023/12/16 05:07:21;;;;;;;10.30;8.73;;;12.00;68.60;;;;;;5044477;28;20473;-56
2023/12/16 05:09:47;;;;;;;9.60;8.60;;;11.90;69.00;;;;;;5046365;28;20204;-57
2023/12/16 05:12:13;;;;;;;10.40;9.30;;;12.00;69.00;;;;;;5042499;28;20276;-56
2023/12/16 05:14:41;;;;;;;10.67;8.80;;;12.00;68.50;;;;;;5044329;28;20191;-55
2023/12/16 05:17:07;;;;;;;12.97;9.87;;;12.10;68.30;;;;;;5046105;28;20249;-54
2023/12/16 05:19:33;;;;;;;10.67;9.20;;;12.10;67.90;;;;;;5046302;28;20982;-55
2023/12/16 05:21:58;;;;;;;9.90;8.53;;;12.10;67.80;;;;;;5042190;28;20949;-56
2023/12/16 05:24:24;;;;;;;9.80;8.00;;;12.10;67.80;;;;;;5046636;28;20295;-57
2023/12/16 05:26:50;;;;;;;8.90;8.00;;;12.10;67.80;;;;;;5046811;28;20597;-58
2023/12/16 05:29:15;;;;;;;9.67;8.33;;;12.10;67.70;;;;;;5048861;28;20337;-57
2023/12/16 05:31:41;;;;;;;9.40;8.40;;;12.20;67.60;;;;;;5044274;28;20531;-54
2023/12/16 05:34:07;;;;;;;9.00;8.00;;;12.10;67.40;;;;;;5048442;28;20207;-55
2023/12/16 05:36:32;;;;;;;9.73;8.73;;;12.10;67.50;;;;;;5046134;28;20181;-56
2023/12/16 05:38:58;;;;;;;8.63;7.80;;;12.10;67.40;;;;;;5043979;28;20218;-53
2023/12/16 05:41:23;;;;;;;9.63;8.47;;;12.10;67.40;;;;;;5042123;28;20307;-55
2023/12/16 05:43:49;;;;;;;8.60;7.10;;;12.10;67.40;;;;;;5040548;28;20321;-57
2023/12/16 05:46:15;;;;;;;9.33;8.37;;;12.00;67.60;;;;;;5039240;28;20288;-56
2023/12/16 05:48:40;;;;;;;10.07;8.73;;;12.10;67.70;;;;;;5039020;28;20195;-56
2023/12/16 05:51:06;;;;;;;14.73;9.90;;;12.20;67.50;;;;;;5043851;28;20185;-56
2023/12/16 05:53:34;;;;;;;9.90;8.90;;;12.30;67.30;;;;;;5047259;28;20185;-56
2023/12/16 05:55:59;;;;;;;10.43;9.10;;;12.30;67.00;;;;;;5045558;28;20187;-53
2023/12/16 05:58:25;;;;;;;9.83;8.83;;;12.30;66.90;;;;;;5044433;28;20934;-54
2023/12/16 06:00:50;;;;;;;11.60;9.70;;;12.30;66.90;;;;;;5047743;28;20235;-55
2023/12/16 06:03:16;;;;;;;11.77;10.00;;;12.30;66.90;;;;;;5047015;28;20246;-54
2023/12/16 06:05:42;;;;;;;10.77;9.33;;;12.30;67.00;;;;;;5043540;28;20182;-56
2023/12/16 06:08:07;;;;;;;12.10;9.60;;;12.20;66.80;;;;;;5046986;28;20192;-56
2023/12/16 06:10:33;;;;;;;10.70;8.97;;;12.10;67.00;;;;;;5044799;28;20227;-55
2023/12/16 06:12:58;;;;;;;13.30;10.07;;;12.10;67.20;;;;;;5045915;28;20205;-56
2023/12/16 06:15:25;;;;;;;9.93;8.90;;;12.10;67.20;;;;;;5041545;28;20196;-56
2023/12/16 06:17:50;;;;;;;10.57;8.97;;;12.10;66.90;;;;;;5042118;28;21070;-50
2023/12/16 06:20:16;;;;;;;10.03;8.97;;;12.10;67.10;;;;;;5045919;28;20502;-55
2023/12/16 06:22:42;;;;;;;10.73;9.63;;;12.00;67.20;;;;;;5047642;28;20670;-58
2023/12/16 06:25:07;;;;;;;11.40;9.87;;;11.90;67.60;;;;;;5042632;28;20444;-54
2023/12/16 06:27:33;;;;;;;9.43;7.70;;;12.00;68.30;;;;;;5039519;28;20803;-58
2023/12/16 06:29:59;;;;;;;17.53;8.33;;;12.00;67.10;;;;;;5041551;28;20720;-57
2023/12/16 06:32:24;;;;;;;12.40;8.30;;;12.10;67.20;;;;;;5046401;28;20275;-57
2023/12/16 06:34:50;;;;;;;11.63;9.00;;;12.20;67.60;;;;;;5044766;28;20185;-54
2023/12/16 06:37:15;;;;;;;9.23;8.40;;;12.40;68.50;;;;;;5045085;28;20193;-56
2023/12/16 06:39:41;;;;;;;8.43;7.60;;;12.60;68.60;;;;;;5044896;28;20680;-56
2023/12/16 06:42:07;;;;;;;9.37;8.53;;;12.80;68.20;;;;;;5045663;28;20242;-57
2023/12/16 06:44:32;;;;;;;10.10;7.70;;;13.00;66.70;;;;;;5039034;28;20943;-58
2023/12/16 06:46:58;;;;;;;7.87;7.07;;;13.00;65.30;;;;;;5046303;28;20449;-53
2023/12/16 06:49:23;;;;;;;13.23;7.50;;;13.00;64.90;;;;;;5046977;28;20315;-57
2023/12/16 06:51:49;;;;;;;9.40;7.70;;;13.10;64.60;;;;;;5042454;28;20606;-56
2023/12/16 06:54:15;;;;;;;9.00;7.33;;;13.20;64.20;;;;;;5043689;28;20184;-57
2023/12/16 06:56:40;;;;;;;10.33;9.27;;;13.30;63.80;;;;;;5044283;28;20268;-55
2023/12/16 06:59:06;;;;;;;11.33;8.60;;;13.30;63.00;;;;;;5044901;28;20271;-56
2023/12/16 07:01:31;;;;;;;9.00;8.10;;;13.30;62.70;;;;;;5044590;28;20215;-57
2023/12/16 07:03:57;;;;;;;12.53;7.83;;;13.40;62.70;;;;;;5046645;28;20191;-54
2023/12/16 07:06:22;;;;;;;10.53;8.53;;;13.40;62.60;;;;;;5047856;28;20184;-58
2023/12/16 07:08:48;;;;;;;11.10;8.03;;;13.30;62.70;;;;;;5046227;28;20204;-56
2023/12/16 07:11:14;;;;;;;8.83;8.00;;;13.30;62.60;;;;;;5046161;28;20220;-57
2023/12/16 07:13:40;;;;;;;9.67;7.83;;;13.40;62.30;;;;;;5042955;28;20203;-57
2023/12/16 07:16:06;;;;;;;8.63;7.80;;;13.40;61.70;;;;;;5045212;28;20443;-57
2023/12/16 07:18:32;;;;;;;9.53;8.00;;;13.50;61.10;;;;;;5043707;28;20569;-57
2023/12/16 07:20:57;;;;;;;9.13;7.23;;;13.50;60.70;;;;;;5040381;28;20524;-54
2023/12/16 07:23:23;;;;;;;8.90;7.87;;;13.50;59.80;;;;;;5048073;28;20192;-55
2023/12/16 07:25:50;;;;;;;8.33;7.43;;;13.40;60.70;;;;;;5047049;28;20268;-56
2023/12/16 07:28:16;;;;;;;7.50;6.80;;;13.40;60.60;;;;;;5045458;28;20200;-58
2023/12/16 07:30:41;;;;;;;7.57;6.80;;;13.50;60.50;;;;;;5039434;28;20974;-55
2023/12/16 07:33:07;;;;;;;7.80;7.10;;;13.50;60.20;;;;;;5042110;28;20199;-57
2023/12/16 07:35:34;;;;;;;9.83;7.57;;;13.50;60.20;;;;;;5043927;28;20194;-56
2023/12/16 07:38:00;;;;;;;7.30;6.60;;;13.50;60.40;;;;;;5045136;28;20196;-56
2023/12/16 07:40:25;;;;;;;7.10;5.90;;;13.50;60.40;;;;;;5049083;28;20439;-55
2023/12/16 07:42:51;;;;;;;9.63;7.00;;;13.60;60.10;;;;;;5047567;28;20188;-53
2023/12/16 07:45:16;;;;;;;8.53;7.70;;;13.60;59.90;;;;;;5048199;28;20189;-55
2023/12/16 07:47:42;;;;;;;8.37;7.43;;;13.50;59.70;;;;;;5047031;28;20254;-57
2023/12/16 07:50:10;;;;;;;9.03;7.20;;;13.50;59.50;;;;;;5039341;28;20224;-55
2023/12/16 07:52:35;;;;;;;9.03;8.13;;;13.60;59.70;;;;;;5044381;28;20711;-52
2023/12/16 07:55:02;;;;;;;8.23;7.07;;;13.70;59.50;;;;;;5047948;28;20478;-56
2023/12/16 07:57:27;;;;;;;8.90;8.00;;;13.60;59.30;;;;;;5044810;28;20219;-57
2023/12/16 07:59:53;;;;;;;8.37;7.57;;;13.70;59.60;;;;;;5036324;28;20476;-55
2023/12/16 08:02:19;;;;;;;9.17;8.27;;;13.70;59.50;;;;;;5049332;28;20216;-56
2023/12/16 08:04:45;;;;;;;9.50;7.53;;;13.80;59.40;;;;;;5046421;28;20193;-54
2023/12/16 08:07:10;;;;;;;9.87;8.87;;;13.80;59.20;;;;;;5047718;28;20451;-57
2023/12/16 08:09:36;;;;;;;8.13;7.33;;;13.80;59.10;;;;;;5048654;28;20781;-54
2023/12/16 08:12:01;;;;;;;9.20;8.30;;;13.80;59.10;;;;;;5042984;28;20212;-55
2023/12/16 08:14:28;;;;;;;9.20;8.30;;;13.90;59.30;;;;;;5049289;28;20215;-56
2023/12/16 08:16:54;;;;;;;9.20;7.23;;;13.90;59.10;;;;;;5049839;28;20715;-52
2023/12/16 08:19:19;;;;;;;8.20;6.73;;;13.90;58.90;;;;;;5044898;28;20462;-58
2023/12/16 08:21:45;;;;;;;8.90;8.00;;;13.80;58.90;;;;;;5048028;28;20228;-58
2023/12/16 08:24:11;;;;;;;8.90;7.00;;;13.90;58.90;;;;;;5050547;28;20259;-57
2023/12/16 08:26:36;;;;;;;10.50;7.40;;;13.90;58.90;;;;;;5049417;28;20189;-57
2023/12/16 08:29:02;;;;;;;7.40;6.13;;;13.90;58.80;;;;;;5047980;28;20201;-56
2023/12/16 08:31:28;;;;;;;7.50;6.80;;;13.80;58.50;;;;;;5048104;28;20193;-55
2023/12/16 08:33:54;;;;;;;8.20;6.87;;;13.70;58.50;;;;;;5041359;28;20870;-58
2023/12/16 08:36:20;;;;;;;8.83;7.60;;;13.60;59.20;;;;;;5048293;28;20427;-57
2023/12/16 08:38:45;;;;;;;9.50;7.43;;;13.60;59.70;;;;;;5043256;28;20196;-56
2023/12/16 08:41:11;;;;;;;8.00;7.20;;;13.50;59.70;;;;;;5048884;28;20255;-55
2023/12/16 08:43:37;;;;;;;9.90;7.40;;;13.60;59.60;;;;;;5044557;28;20200;-57
2023/12/16 08:46:03;;;;;;;8.20;7.37;;;13.60;59.50;;;;;;5047277;28;20554;-58
2023/12/16 08:48:29;;;;;;;8.27;6.80;;;13.70;59.30;;;;;;5044739;28;20193;-57
2023/12/16 08:50:57;;;;;;;8.00;6.47;;;13.70;59.20;;;;;;5046202;28;20421;-53
2023/12/16 08:53:23;;;;;;;10.40;7.47;;;13.70;59.30;;;;;;5049375;28;20185;-54
2023/12/16 08:55:49;;;;;;;7.27;6.57;;;13.70;59.10;;;;;;5044399;28;20936;-57
2023/12/16 08:58:16;;;;;;;8.00;7.20;;;13.60;59.50;;;;;;5041425;28;20531;-57
2023/12/16 09:00:41;;;;;;;8.40;6.93;;;13.60;59.60;;;;;;5046317;28;20561;-57
2023/12/16 09:03:07;;;;;;;7.80;6.73;;;13.70;59.40;;;;;;5043876;28;20597;-55
2023/12/16 09:05:34;;;;;;;8.80;7.27;;;13.70;59.10;;;;;;5047405;28;20181;-54
2023/12/16 09:07:59;;;;;;;7.30;6.30;;;13.70;58.30;;;;;;5045398;28;20238;-56
2023/12/16 09:10:25;;;;;;;8.30;6.70;;;13.60;58.90;;;;;;5046631;28;20458;-54
2023/12/16 09:12:51;;;;;;;7.67;6.90;;;13.50;58.80;;;;;;5047625;28;20233;-53
2023/12/16 09:15:17;;;;;;;8.80;7.90;;;13.40;59.20;;;;;;5042756;28;20184;-56
2023/12/16 09:17:44;;;;;;;6.57;5.97;;;13.50;59.60;;;;;;5044063;28;20195;-55
2023/12/16 09:20:10;;;;;;;7.80;6.97;;;13.60;59.50;;;;;;5045211;28;20447;-56
2023/12/16 09:22:36;;;;;;;8.63;7.23;;;13.70;59.30;;;;;;5048526;28;21056;-58
2023/12/16 09:25:04;;;;;;;7.10;6.40;;;13.80;59.20;;;;;;5047295;28;20439;-55
2023/12/16 09:27:29;;;;;;;8.23;7.53;;;13.80;59.00;;;;;;5037113;28;20184;-56
2023/12/16 09:29:55;;;;;;;6.67;6.07;;;13.90;59.10;;;;;;5043666;28;20471;-56
2023/12/16 09:32:21;;;;;;;7.00;5.60;;;13.80;58.10;;;;;;5047377;28;20185;-57
2023/12/16 09:34:47;;;;;;;7.87;5.57;;;13.60;59.00;;;;;;5048242;28;20290;-55
2023/12/16 09:37:14;;;;;;;12.00;5.93;;;13.70;59.50;;;;;;5047480;28;20200;-55
2023/12/16 09:39:40;;;;;;;6.60;6.00;;;13.80;59.30;;;;;;5045136;28;20467;-57
2023/12/16 09:42:06;;;;;;;7.90;5.60;;;13.90;59.00;;;;;;5043918;28;20490;-56
2023/12/16 09:44:40;;;;;;;8.60;6.03;;;14.00;58.40;;;;;;5045470;28;20425;-56
2023/12/16 09:47:08;;;;;;;7.23;5.70;;;13.90;57.30;;;;;;5048034;28;20485;-56
2023/12/16 09:49:36;;;;;;;7.03;6.00;;;13.90;57.90;;;;;;5045341;28;20451;-57
2023/12/16 09:52:01;;;;;;;7.30;6.33;;;13.90;57.90;;;;;;5043771;28;20521;-54
2023/12/16 09:54:27;;;;;;;6.83;6.17;;;14.00;57.80;;;;;;5036657;28;20440;-53
2023/12/16 09:56:55;;;;;;;6.20;5.30;;;14.00;57.90;;;;;;5042632;28;20269;-58
2023/12/16 09:59:23;;;;;;;7.07;5.83;;;14.10;57.90;;;;;;5042686;28;20225;-57
2023/12/16 10:01:58;;;;;;;6.57;5.90;;;14.20;57.70;;;;;;5045159;28;20949;-57
2023/12/16 10:04:24;;;;;;;9.73;7.57;;;14.20;57.70;;;;;;5046263;28;20437;-55
2023/12/16 10:06:50;;;;;;;10.73;6.87;;;14.30;57.80;;;;;;5044164;28;20517;-52
2023/12/16 10:09:16;;;;;;;6.87;6.20;;;14.30;57.60;;;;;;5042646;28;21069;-55
2023/12/16 10:11:42;;;;;;;8.40;7.40;;;14.30;57.50;;;;;;5038554;28;20184;-56
2023/12/16 10:14:08;;;;;;;8.90;6.40;;;14.30;57.50;;;;;;5040479;28;20660;-54
2023/12/16 10:16:34;;;;;;;7.47;6.20;;;14.30;57.50;;;;;;5045705;28;20188;-57
2023/12/16 10:18:59;;;;;;;7.63;5.50;;;14.30;57.60;;;;;;5038270;28;20692;-57
2023/12/16 10:21:28;;;;;;;6.77;6.17;;;14.30;57.70;;;;;;5043886;28;21911;-55
2023/12/16 10:23:56;;;;;;;7.90;7.10;;;14.20;57.80;;;;;;5043646;28;20197;-57
2023/12/16 10:26:22;;;;;;;6.27;5.73;;;14.30;57.60;;;;;;5039721;28;20439;-55
2023/12/16 10:28:47;;;;;;;7.73;7.03;;;14.40;57.50;;;;;;5040730;28;20576;-55
2023/12/16 10:31:15;;;;;;;7.27;6.50;;;14.40;57.20;;;;;;5034479;28;20201;-55
2023/12/16 10:33:41;;;;;;;7.03;6.33;;;14.40;57.20;;;;;;5042557;28;20214;-57
2023/12/16 10:36:08;;;;;;;8.63;7.40;;;14.40;57.30;;;;;;5044952;28;21082;-56
2023/12/16 10:38:33;;;;;;;7.10;6.40;;;14.40;57.40;;;;;;5042262;28;20451;-58
2023/12/16 10:40:59;;;;;;;7.67;6.40;;;14.50;57.40;;;;;;5047189;28;21012;-56
2023/12/16 10:43:24;;;;;;;6.70;6.10;;;14.40;56.90;;;;;;5043221;28;20281;-57
2023/12/16 10:45:51;;;;;;;7.47;6.40;;;14.40;57.00;;;;;;5044018;28;20188;-55
2023/12/16 10:48:21;;;;;;;7.33;5.77;;;14.30;57.10;;;;;;5045561;28;20196;-54
2023/12/16 10:50:48;;;;;;;7.47;6.20;;;14.30;57.10;;;;;;5042288;28;20985;-54
2023/12/16 10:53:23;;;;;;;7.40;5.93;;;14.40;57.10;;;;;;5044816;28;20422;-55
2023/12/16 10:55:53;;;;;;;6.80;6.13;;;14.30;56.90;;;;;;5042790;28;20469;-55
2023/12/16 10:58:35;;;;;;;7.50;6.70;;;14.40;57.10;;;;;;5045265;28;20470;-58
2023/12/16 11:01:08;;;;;;;9.60;7.10;;;14.30;57.20;;;;;;5042824;28;20475;-54
2023/12/16 11:03:37;;;;;;;7.70;6.93;;;14.30;57.20;;;;;;5047027;28;20478;-56
2023/12/16 11:06:10;;;;;;;9.57;7.27;;;14.30;57.20;;;;;;5046324;28;20853;-56
2023/12/16 11:08:37;;;;;;;7.57;6.77;;;14.30;57.50;;;;;;5041885;28;20438;-54
2023/12/16 11:11:03;;;;;;;8.37;6.90;;;14.30;57.60;;;;;;5039355;28;21027;-54
2023/12/16 11:13:29;;;;;;;8.77;7.70;;;14.40;57.60;;;;;;5043315;28;20442;-57
2023/12/16 11:16:02;;;;;;;7.53;6.83;;;14.40;57.50;;;;;;5047785;28;20419;-57
2023/12/16 11:18:30;;;;;;;8.53;7.60;;;14.50;57.20;;;;;;5043503;28;20419;-54
2023/12/16 11:21:03;;;;;;;9.13;7.30;;;14.50;57.10;;;;;;5046445;28;20844;-53
2023/12/16 11:23:29;;;;;;;8.23;7.20;;;14.50;57.20;;;;;;5046243;28;20512;-57
2023/12/16 11:25:55;;;;;;;7.80;6.77;;;14.50;57.30;;;;;;5049337;28;20443;-56
2023/12/16 11:28:21;;;;;;;7.07;6.43;;;14.50;57.50;;;;;;5047094;28;20192;-57
2023/12/16 11:30:47;;;;;;;7.83;6.77;;;14.50;57.40;;;;;;5043807;28;21253;-54
2023/12/16 11:33:13;;;;;;;8.47;6.87;;;14.50;57.40;;;;;;5041131;28;20403;-57
2023/12/16 11:35:50;;;;;;;7.33;6.67;;;14.60;57.60;;;;;;5049373;28;20551;-57
2023/12/16 11:38:34;;;;;;;8.40;7.60;;;14.60;57.60;;;;;;5047613;28;20181;-58
2023/12/16 11:41:00;;;;;;;11.00;7.63;;;14.60;57.80;;;;;;5047155;28;20954;-58
2023/12/16 11:43:52;;;;;;;7.73;6.87;;;14.60;57.70;;;;;;5047402;28;20531;-58
2023/12/16 11:46:32;;;;;;;8.10;7.07;;;14.50;58.00;;;;;;5048548;28;21330;-56
2023/12/16 11:48:59;;;;;;;8.00;7.20;;;14.50;58.30;;;;;;5050487;28;20497;-57
2023/12/16 11:51:25;;;;;;;10.30;7.70;;;14.40;58.20;;;;;;5046049;28;20434;-56
2023/12/16 11:53:52;;;;;;;9.30;7.13;;;14.40;58.30;;;;;;5050672;28;20429;-58
2023/12/16 11:56:19;;;;;;;8.23;7.43;;;14.40;58.70;;;;;;5046523;28;20184;-58
2023/12/16 11:58:45;;;;;;;9.57;8.20;;;14.40;58.30;;;;;;5047747;28;20453;-55
2023/12/16 12:01:10;;;;;;;9.57;7.60;;;14.30;58.40;;;;;;5048197;28;20466;-58
2023/12/16 12:03:36;;;;;;;9.77;7.50;;;14.40;58.80;;;;;;5047284;28;20189;-58
2023/12/16 12:06:03;;;;;;;8.53;7.70;;;14.40;58.60;;;;;;5044983;28;20215;-58
2023/12/16 12:08:29;;;;;;;9.33;7.97;;;14.40;58.50;;;;;;5044804;28;20188;-56
2023/12/16 12:10:54;;;;;;;8.40;7.60;;;14.40;58.50;;;;;;5048518;28;20439;-56
2023/12/16 12:13:20;;;;;;;13.53;8.30;;;14.40;58.30;;;;;;5042867;28;20215;-56
2023/12/16 12:15:46;;;;;;;8.30;7.50;;;14.40;57.90;;;;;;5040565;28;20274;-57
2023/12/16 12:18:11;;;;;;;8.73;7.80;;;14.40;57.90;;;;;;5045774;28;20204;-57
2023/12/16 12:20:37;;;;;;;9.37;8.20;;;14.40;57.90;;;;;;5045725;28;20208;-58
2023/12/16 12:23:02;;;;;;;9.03;8.13;;;14.50;58.00;;;;;;5044108;28;20216;-57
2023/12/16 12:25:28;;;;;;;7.97;7.17;;;14.60;57.80;;;;;;5046152;28;20220;-53
2023/12/16 12:27:53;;;;;;;9.73;8.83;;;14.50;58.30;;;;;;5045455;28;20185;-55
2023/12/16 12:30:19;;;;;;;9.87;8.97;;;14.50;57.70;;;;;;5045347;28;20219;-55
2023/12/16 12:32:45;;;;;;;10.97;9.40;;;14.50;57.80;;;;;;5048231;28;20187;-54